Time;durP1;ratioP1;P1;durP2;ratioP2;P2;SDS_P1;SDS_P2;PMS_P1;PMS_P2;Temp;Humidity;BMP_temperature;BMP_pressure;BME280_temperature;BME280_humidity;BME280_pressure;Samples;Min_cycle;Max_cycle;Signal;HPM_P1;HPM_P2
2022/10/17 00:00:59;;;;;;;15.32;3.55;;;;;;;;;;4994096;28;20049;-64
2022/10/17 00:03:26;;;;;;;15.30;3.08;;;;;;;;;;4994105;28;20081;-63
2022/10/17 00:05:53;;;;;;;11.90;2.83;;;;;;;;;;4993835;28;20034;-63
2022/10/17 00:08:20;;;;;;;8.35;2.35;;;;;;;;;;4994027;28;20029;-63
2022/10/17 00:11:07;;;;;;;14.05;2.95;;;;;;;;;;4993928;28;20681;-63
2022/10/17 00:13:35;;;;;;;13.02;3.00;;;;;;;;;;4993716;28;20023;-63
2022/10/17 00:16:02;;;;;;;12.13;2.85;;;;;;;;;;4993598;28;20022;-64
2022/10/17 00:18:30;;;;;;;13.23;2.90;;;;;;;;;;4992935;28;20396;-66
2022/10/17 00:20:57;;;;;;;11.13;2.72;;;;;;;;;;4985162;28;20392;-65
2022/10/17 00:23:26;;;;;;;13.13;2.60;;;;;;;;;;4985562;28;20065;-64
2022/10/17 00:26:00;;;;;;;12.57;2.95;;;;;;;;;;4989467;28;20038;-65
2022/10/17 00:28:27;;;;;;;11.98;2.97;;;;;;;;;;4988601;28;20038;-63
2022/10/17 00:31:02;;;;;;;10.95;2.67;;;;;;;;;;4992645;28;20019;-62
2022/10/17 00:33:29;;;;;;;15.20;2.75;;;;;;;;;;4990469;28;20113;-63
2022/10/17 00:36:29;;;;;;;12.02;2.50;;;;;;;;;;4991087;28;20042;-63
2022/10/17 00:38:57;;;;;;;16.05;2.85;;;;;;;;;;4943512;28;20038;-62
2022/10/17 00:41:27;;;;;;;15.07;2.53;;;;;;;;;;4982324;28;20038;-63
2022/10/17 00:43:56;;;;;;;11.98;2.55;;;;;;;;;;4977666;28;20043;-63
2022/10/17 00:46:24;;;;;;;11.30;2.15;;;;;;;;;;4983905;28;20604;-67
2022/10/17 00:48:53;;;;;;;16.33;2.75;;;;;;;;;;4991673;28;20034;-63
2022/10/17 00:51:23;;;;;;;14.23;2.83;;;;;;;;;;4985621;28;20022;-63
2022/10/17 00:53:50;;;;;;;12.10;2.67;;;;;;;;;;4982449;28;20030;-63
2022/10/17 00:56:18;;;;;;;18.75;3.03;;;;;;;;;;4991449;28;20034;-64
2022/10/17 00:58:46;;;;;;;16.77;2.90;;;;;;;;;;4990851;28;20034;-65
2022/10/17 01:01:13;;;;;;;13.90;3.03;;;;;;;;;;4974826;28;20031;-64
2022/10/17 01:03:40;;;;;;;21.05;3.08;;;;;;;;;;4991760;28;20085;-65
2022/10/17 01:06:06;;;;;;;17.92;3.45;;;;;;;;;;4983985;28;20101;-64
2022/10/17 01:08:34;;;;;;;18.75;3.33;;;;;;;;;;4973001;28;20086;-64
2022/10/17 01:11:05;;;;;;;14.23;3.25;;;;;;;;;;4984557;28;20027;-65
2022/10/17 01:13:48;;;;;;;20.58;3.33;;;;;;;;;;4991148;28;20096;-64
2022/10/17 01:16:20;;;;;;;26.27;3.30;;;;;;;;;;4990945;28;20037;-65
2022/10/17 01:18:56;;;;;;;28.80;3.25;;;;;;;;;;4992177;28;20083;-67
2022/10/17 01:21:45;;;;;;;18.15;3.15;;;;;;;;;;4991633;28;20030;-64
2022/10/17 01:24:15;;;;;;;20.40;3.00;;;;;;;;;;4990380;28;20500;-65
2022/10/17 01:27:06;;;;;;;21.52;3.13;;;;;;;;;;4990558;28;20049;-67
2022/10/17 01:29:33;;;;;;;23.10;3.63;;;;;;;;;;4990342;28;20030;-67
2022/10/17 01:32:19;;;;;;;20.92;2.97;;;;;;;;;;4990745;28;20515;-64
2022/10/17 01:35:02;;;;;;;18.63;3.67;;;;;;;;;;4989439;28;20102;-65
2022/10/17 01:37:34;;;;;;;15.65;2.95;;;;;;;;;;4991075;28;20031;-64
2022/10/17 01:40:10;;;;;;;23.50;3.03;;;;;;;;;;4989527;28;20105;-64
2022/10/17 01:42:40;;;;;;;22.95;3.35;;;;;;;;;;4989977;28;20097;-64
2022/10/17 01:45:10;;;;;;;15.05;2.60;;;;;;;;;;4991581;28;20384;-63
2022/10/17 01:47:37;;;;;;;16.70;3.30;;;;;;;;;;4991004;28;20516;-64
2022/10/17 01:50:09;;;;;;;22.73;3.05;;;;;;;;;;4989583;28;20049;-65
2022/10/17 01:52:42;;;;;;;22.80;3.80;;;;;;;;;;4983087;28;20102;-65
2022/10/17 01:55:13;;;;;;;21.70;3.33;;;;;;;;;;4986077;28;20502;-64
2022/10/17 01:57:42;;;;;;;21.55;3.17;;;;;;;;;;4984266;28;20041;-64
2022/10/17 02:00:11;;;;;;;22.27;3.10;;;;;;;;;;4990866;28;20101;-67
2022/10/17 02:02:39;;;;;;;18.52;3.50;;;;;;;;;;4985209;28;20050;-66
2022/10/17 02:05:06;;;;;;;23.60;4.18;;;;;;;;;;4989869;28;20026;-64
2022/10/17 02:07:33;;;;;;;24.95;3.47;;;;;;;;;;4993896;28;20160;-64
2022/10/17 02:10:00;;;;;;;24.75;3.42;;;;;;;;;;4994064;28;20041;-65
2022/10/17 02:12:27;;;;;;;15.63;3.00;;;;;;;;;;4994192;28;20084;-64
2022/10/17 02:15:29;;;;;;;15.27;3.22;;;;;;;;;;4994657;28;20034;-63
2022/10/17 02:18:02;;;;;;;18.47;3.60;;;;;;;;;;4910490;29;20041;-63
2022/10/17 02:20:43;;;;;;;25.23;3.70;;;;;;;;;;4979611;28;20042;-65
2022/10/17 02:23:10;;;;;;;17.42;3.08;;;;;;;;;;4990669;28;20030;-64
2022/10/17 02:25:42;;;;;;;19.45;3.70;;;;;;;;;;4994326;28;20358;-63
2022/10/17 02:28:09;;;;;;;14.38;3.00;;;;;;;;;;4995307;28;20043;-63
2022/10/17 02:30:42;;;;;;;21.25;3.40;;;;;;;;;;4995685;28;20129;-62
2022/10/17 02:33:12;;;;;;;17.83;2.65;;;;;;;;;;4995741;28;20058;-62
2022/10/17 02:35:41;;;;;;;15.43;2.97;;;;;;;;;;4995552;28;20030;-63
2022/10/17 02:38:10;;;;;;;16.98;3.17;;;;;;;;;;4995678;28;20030;-63
2022/10/17 02:40:38;;;;;;;18.65;3.67;;;;;;;;;;4995346;28;20030;-62
2022/10/17 02:43:05;;;;;;;15.07;3.28;;;;;;;;;;4995613;28;20419;-63
2022/10/17 02:45:34;;;;;;;16.00;3.53;;;;;;;;;;4995337;28;20026;-62
2022/10/17 02:48:04;;;;;;;19.55;3.53;;;;;;;;;;4995256;28;20042;-63
2022/10/17 02:50:51;;;;;;;14.85;3.20;;;;;;;;;;4995028;28;20055;-62
2022/10/17 02:53:23;;;;;;;10.27;2.63;;;;;;;;;;4985318;28;20092;-62
2022/10/17 02:55:56;;;;;;;15.63;3.58;;;;;;;;;;4977453;28;20392;-62
2022/10/17 02:58:29;;;;;;;16.63;2.88;;;;;;;;;;4995308;28;20031;-63
2022/10/17 03:00:57;;;;;;;17.92;3.33;;;;;;;;;;4995118;28;20029;-62
2022/10/17 03:03:27;;;;;;;12.32;2.50;;;;;;;;;;4995243;28;20022;-63
2022/10/17 03:05:54;;;;;;;13.07;3.78;;;;;;;;;;4995002;28;20023;-62
2022/10/17 03:08:22;;;;;;;14.20;2.97;;;;;;;;;;4995065;28;20033;-62
2022/10/17 03:10:49;;;;;;;16.40;3.17;;;;;;;;;;4994681;28;20019;-62
2022/10/17 03:13:16;;;;;;;11.68;2.97;;;;;;;;;;4994394;28;20045;-63
2022/10/17 03:15:43;;;;;;;12.40;2.72;;;;;;;;;;4994884;28;20025;-62
2022/10/17 03:18:11;;;;;;;18.30;3.63;;;;;;;;;;4994768;28;20464;-62
2022/10/17 03:20:37;;;;;;;13.43;2.55;;;;;;;;;;4994692;28;20062;-62
2022/10/17 03:23:04;;;;;;;12.30;2.78;;;;;;;;;;4994823;28;20097;-63
2022/10/17 03:25:31;;;;;;;11.77;2.70;;;;;;;;;;4994575;28;20499;-62
2022/10/17 03:28:00;;;;;;;8.75;2.70;;;;;;;;;;4994668;28;20037;-62
2022/10/17 03:30:28;;;;;;;10.65;2.20;;;;;;;;;;4994574;28;20031;-63
2022/10/17 03:32:57;;;;;;;14.13;2.90;;;;;;;;;;4994658;28;20384;-62
2022/10/17 03:35:24;;;;;;;9.18;2.30;;;;;;;;;;4994573;28;20087;-62
2022/10/17 03:37:51;;;;;;;14.43;2.65;;;;;;;;;;4994477;28;20030;-62
2022/10/17 03:40:18;;;;;;;16.33;3.10;;;;;;;;;;4994485;28;20536;-62
2022/10/17 03:42:45;;;;;;;12.55;2.65;;;;;;;;;;4994451;28;20054;-63
2022/10/17 03:45:12;;;;;;;14.00;2.55;;;;;;;;;;4994290;28;20019;-62
2022/10/17 03:47:39;;;;;;;9.77;2.58;;;;;;;;;;4994037;28;20030;-62
2022/10/17 03:50:06;;;;;;;11.32;2.70;;;;;;;;;;4994120;28;20469;-63
2022/10/17 03:52:33;;;;;;;11.15;2.25;;;;;;;;;;4994174;28;20034;-62
2022/10/17 03:55:00;;;;;;;17.85;3.83;;;;;;;;;;4994116;28;20054;-62
2022/10/17 03:57:27;;;;;;;10.82;2.33;;;;;;;;;;4994121;28;20508;-63
2022/10/17 03:59:54;;;;;;;6.38;1.80;;;;;;;;;;4994071;28;20038;-63
2022/10/17 04:02:21;;;;;;;8.98;2.28;;;;;;;;;;4994072;28;20034;-62
2022/10/17 04:04:48;;;;;;;8.20;2.33;;;;;;;;;;4993972;28;20088;-62
2022/10/17 04:07:15;;;;;;;8.20;2.35;;;;;;;;;;4993883;28;20512;-62
2022/10/17 04:09:42;;;;;;;8.10;2.15;;;;;;;;;;4993840;28;20049;-63
2022/10/17 04:12:08;;;;;;;8.40;2.20;;;;;;;;;;4993834;28;20586;-62
2022/10/17 04:14:36;;;;;;;6.22;2.17;;;;;;;;;;4993766;28;20026;-62
2022/10/17 04:17:03;;;;;;;8.90;2.20;;;;;;;;;;4993739;28;20097;-62
2022/10/17 04:19:30;;;;;;;8.45;1.80;;;;;;;;;;4993737;28;20022;-62
2022/10/17 04:21:57;;;;;;;9.63;1.98;;;;;;;;;;4992914;28;20053;-62
2022/10/17 04:24:24;;;;;;;9.25;2.53;;;;;;;;;;4993574;28;20385;-63
2022/10/17 04:26:51;;;;;;;9.43;2.60;;;;;;;;;;4993467;28;20031;-62
2022/10/17 04:29:18;;;;;;;6.85;2.00;;;;;;;;;;4993532;28;20027;-62
2022/10/17 04:31:45;;;;;;;10.00;2.03;;;;;;;;;;4993542;28;20047;-63
2022/10/17 04:34:15;;;;;;;8.50;2.00;;;;;;;;;;4993334;28;20077;-62
2022/10/17 04:36:42;;;;;;;6.93;1.85;;;;;;;;;;4993358;28;20479;-62
2022/10/17 04:39:09;;;;;;;6.38;1.48;;;;;;;;;;4993479;28;20070;-62
2022/10/17 04:41:36;;;;;;;8.85;2.13;;;;;;;;;;4993366;28;20098;-62
2022/10/17 04:44:03;;;;;;;10.95;2.03;;;;;;;;;;4975627;28;20400;-63
2022/10/17 04:46:30;;;;;;;5.22;1.75;;;;;;;;;;4993206;28;20598;-62
2022/10/17 04:48:57;;;;;;;9.05;2.17;;;;;;;;;;4993093;28;20532;-62
2022/10/17 04:51:24;;;;;;;6.40;1.70;;;;;;;;;;4993122;28;20084;-62
2022/10/17 04:53:51;;;;;;;7.00;1.70;;;;;;;;;;4993048;28;20041;-62
2022/10/17 04:56:23;;;;;;;9.20;1.67;;;;;;;;;;4993158;28;20117;-63
2022/10/17 04:58:50;;;;;;;7.68;1.65;;;;;;;;;;4993112;28;20049;-62
2022/10/17 05:01:18;;;;;;;5.95;1.48;;;;;;;;;;4992983;28;20105;-62
2022/10/17 05:03:46;;;;;;;5.13;1.50;;;;;;;;;;4992979;28;20027;-62
2022/10/17 05:06:17;;;;;;;6.10;1.45;;;;;;;;;;4992757;28;20026;-62
2022/10/17 05:08:44;;;;;;;7.93;1.98;;;;;;;;;;4992795;28;20109;-62
2022/10/17 05:11:18;;;;;;;5.30;1.65;;;;;;;;;;4992810;28;20088;-62
2022/10/17 05:13:45;;;;;;;4.97;1.40;;;;;;;;;;4992631;28;20014;-62
2022/10/17 05:16:12;;;;;;;6.78;1.98;;;;;;;;;;4992749;28;20019;-62
2022/10/17 05:18:39;;;;;;;4.45;1.63;;;;;;;;;;4992723;28;20030;-62
2022/10/17 05:21:06;;;;;;;5.70;1.42;;;;;;;;;;4992789;28;20032;-62
2022/10/17 05:23:32;;;;;;;8.27;1.60;;;;;;;;;;4992743;28;20097;-62
2022/10/17 05:25:59;;;;;;;5.63;1.60;;;;;;;;;;4992529;28;20018;-62
2022/10/17 05:28:27;;;;;;;8.00;1.98;;;;;;;;;;4992600;28;20508;-62
2022/10/17 05:30:54;;;;;;;4.50;1.40;;;;;;;;;;4992568;28;20033;-62
2022/10/17 05:33:23;;;;;;;4.55;1.40;;;;;;;;;;4992566;28;20027;-62
2022/10/17 05:35:49;;;;;;;8.20;2.10;;;;;;;;;;4992450;28;20030;-62
2022/10/17 05:38:16;;;;;;;5.45;1.30;;;;;;;;;;4992588;28;20054;-62
2022/10/17 05:40:43;;;;;;;8.30;1.73;;;;;;;;;;4992402;28;20022;-62
2022/10/17 05:43:10;;;;;;;6.30;1.85;;;;;;;;;;4992421;28;20034;-62
2022/10/17 05:45:37;;;;;;;6.05;1.60;;;;;;;;;;4992389;28;20023;-62
2022/10/17 05:48:04;;;;;;;3.47;1.40;;;;;;;;;;4992410;28;20480;-62
2022/10/17 05:50:32;;;;;;;4.80;1.40;;;;;;;;;;4992296;28;20404;-62
2022/10/17 05:52:58;;;;;;;3.75;1.27;;;;;;;;;;4992338;28;20022;-62
2022/10/17 05:55:25;;;;;;;5.38;1.58;;;;;;;;;;4992271;28;20022;-63
2022/10/17 05:57:52;;;;;;;5.88;1.50;;;;;;;;;;4992389;28;20127;-62
2022/10/17 06:00:20;;;;;;;4.38;1.20;;;;;;;;;;4992298;28;20097;-62
2022/10/17 06:02:47;;;;;;;5.00;1.13;;;;;;;;;;4990873;28;20489;-62
2022/10/17 06:05:15;;;;;;;3.40;1.25;;;;;;;;;;4992907;28;20026;-62
2022/10/17 06:07:41;;;;;;;3.70;1.25;;;;;;;;;;4992296;28;20054;-63
2022/10/17 06:10:11;;;;;;;3.45;1.30;;;;;;;;;;4991963;28;20117;-62
2022/10/17 06:12:38;;;;;;;3.80;1.30;;;;;;;;;;4992174;28;20029;-62
2022/10/17 06:15:05;;;;;;;6.95;1.35;;;;;;;;;;4992218;28;20485;-62
2022/10/17 06:17:32;;;;;;;2.75;1.27;;;;;;;;;;4992226;28;20109;-62
2022/10/17 06:19:59;;;;;;;5.43;1.33;;;;;;;;;;4992164;28;20210;-62
2022/10/17 06:22:26;;;;;;;5.78;1.10;;;;;;;;;;4992183;28;20381;-62
2022/10/17 06:24:53;;;;;;;3.20;0.98;;;;;;;;;;4992108;28;20111;-62
2022/10/17 06:27:20;;;;;;;3.20;1.10;;;;;;;;;;4992088;28;20034;-62
2022/10/17 06:29:47;;;;;;;7.03;1.40;;;;;;;;;;4992230;28;20018;-62
2022/10/17 06:32:14;;;;;;;5.35;1.33;;;;;;;;;;4991940;28;20388;-63
2022/10/17 06:34:41;;;;;;;4.68;1.15;;;;;;;;;;4992036;28;20160;-62
2022/10/17 06:37:08;;;;;;;3.90;1.50;;;;;;;;;;4992117;28;20112;-62
2022/10/17 06:39:35;;;;;;;7.95;1.33;;;;;;;;;;4991949;28;20034;-62
2022/10/17 06:42:03;;;;;;;5.63;1.42;;;;;;;;;;4992010;28;20558;-63
2022/10/17 06:44:30;;;;;;;4.30;1.30;;;;;;;;;;4992769;28;20732;-63
2022/10/17 06:46:58;;;;;;;3.83;1.33;;;;;;;;;;5142551;22;20053;-62
2022/10/17 06:49:25;;;;;;;2.83;1.10;;;;;;;;;;5054308;28;20032;-63
2022/10/17 06:51:52;;;;;;;5.97;1.20;;;;;;;;;;5054871;28;20032;-63
2022/10/17 06:54:19;;;;;;;2.00;1.13;;;;;;;;;;5054702;28;20383;-62
2022/10/17 06:56:46;;;;;;;6.65;1.55;;;;;;;;;;5054636;28;20033;-63
2022/10/17 06:59:14;;;;;;;4.93;1.27;;;;;;;;;;5054337;28;20099;-61
2022/10/17 07:01:41;;;;;;;6.38;1.60;;;;;;;;;;5054426;28;20535;-61
2022/10/17 07:04:08;;;;;;;3.97;0.90;;;;;;;;;;5054418;28;20052;-60
2022/10/17 07:06:35;;;;;;;3.05;1.10;;;;;;;;;;5054267;28;20429;-60
2022/10/17 07:09:05;;;;;;;2.08;0.93;;;;;;;;;;5054414;28;20079;-61
2022/10/17 07:11:34;;;;;;;2.92;1.17;;;;;;;;;;5054166;28;20033;-60
2022/10/17 07:14:01;;;;;;;2.63;1.00;;;;;;;;;;5054220;28;20029;-60
2022/10/17 07:16:28;;;;;;;6.05;1.20;;;;;;;;;;5054130;28;20029;-61
2022/10/17 07:18:55;;;;;;;3.47;1.08;;;;;;;;;;5054281;28;20024;-60
2022/10/17 07:21:22;;;;;;;2.92;0.93;;;;;;;;;;5054189;28;20017;-61
2022/10/17 07:23:49;;;;;;;2.70;1.30;;;;;;;;;;5054132;28;20033;-60
2022/10/17 07:26:17;;;;;;;3.30;1.02;;;;;;;;;;5053926;28;20033;-60
2022/10/17 07:28:45;;;;;;;3.15;0.90;;;;;;;;;;5054068;28;20041;-60
2022/10/17 07:31:13;;;;;;;2.88;0.90;;;;;;;;;;5054015;28;20029;-61
2022/10/17 07:33:40;;;;;;;3.67;0.77;;;;;;;;;;5054028;28;20025;-61
2022/10/17 07:36:08;;;;;;;3.53;1.20;;;;;;;;;;5053781;28;20027;-61
2022/10/17 07:38:36;;;;;;;4.22;1.30;;;;;;;;;;5053955;28;20017;-60
2022/10/17 07:41:04;;;;;;;4.15;0.95;;;;;;;;;;5053676;28;20402;-63
2022/10/17 07:43:31;;;;;;;3.58;1.20;;;;;;;;;;5053671;28;20368;-62
2022/10/17 07:45:58;;;;;;;3.05;0.90;;;;;;;;;;5053665;28;20021;-62
2022/10/17 07:48:25;;;;;;;3.70;1.17;;;;;;;;;;5033729;28;20041;-62
2022/10/17 07:50:52;;;;;;;2.35;1.02;;;;;;;;;;5033575;28;20032;-62
2022/10/17 07:53:19;;;;;;;3.45;1.08;;;;;;;;;;5033989;28;20398;-62
2022/10/17 07:55:46;;;;;;;1.98;0.90;;;;;;;;;;5032436;28;20387;-62
2022/10/17 07:58:13;;;;;;;2.55;0.80;;;;;;;;;;5033354;28;20029;-63
2022/10/17 08:00:40;;;;;;;2.78;1.25;;;;;;;;;;5033508;28;20031;-62
2022/10/17 08:03:09;;;;;;;2.53;1.10;;;;;;;;;;5033582;28;20029;-63
2022/10/17 08:05:36;;;;;;;2.78;1.00;;;;;;;;;;5033329;28;20029;-63
2022/10/17 08:08:03;;;;;;;2.80;1.20;;;;;;;;;;5033298;28;20038;-62
2022/10/17 08:10:30;;;;;;;3.42;1.17;;;;;;;;;;5033359;28;20505;-63
2022/10/17 08:12:58;;;;;;;3.47;1.33;;;;;;;;;;5033262;28;20025;-63
2022/10/17 08:15:26;;;;;;;3.78;1.10;;;;;;;;;;5033117;28;20014;-62
2022/10/17 08:17:54;;;;;;;5.75;0.88;;;;;;;;;;5033254;28;20777;-63
2022/10/17 08:20:21;;;;;;;2.75;1.00;;;;;;;;;;5032969;28;20034;-62
2022/10/17 08:22:54;;;;;;;5.72;1.08;;;;;;;;;;5033123;28;20033;-63
2022/10/17 08:25:21;;;;;;;2.08;0.90;;;;;;;;;;5032918;28;20033;-62
2022/10/17 08:27:49;;;;;;;2.25;0.90;;;;;;;;;;5032975;28;20037;-63
2022/10/17 08:30:16;;;;;;;5.63;1.00;;;;;;;;;;5033032;28;20029;-62
2022/10/17 08:32:43;;;;;;;1.42;0.80;;;;;;;;;;5032889;28;20083;-61
2022/10/17 08:35:11;;;;;;;3.00;1.10;;;;;;;;;;5032763;28;20021;-60
2022/10/17 08:37:38;;;;;;;2.83;1.20;;;;;;;;;;5032807;28;20079;-60
2022/10/17 08:40:05;;;;;;;3.00;1.00;;;;;;;;;;5032829;28;20029;-60
2022/10/17 08:42:50;;;;;;;4.57;1.05;;;;;;;;;;5032599;28;20068;-60
2022/10/17 08:45:39;;;;;;;3.30;1.10;;;;;;;;;;5032486;28;20051;-60
2022/10/17 08:48:10;;;;;;;3.70;1.20;;;;;;;;;;5049814;28;20088;-60
2022/10/17 08:50:40;;;;;;;5.47;1.30;;;;;;;;;;5034990;28;20573;-60
2022/10/17 08:53:17;;;;;;;3.88;1.27;;;;;;;;;;5052485;28;20052;-60
2022/10/17 08:55:46;;;;;;;4.80;0.98;;;;;;;;;;5034420;28;20059;-60
2022/10/17 08:58:24;;;;;;;2.97;0.88;;;;;;;;;;5052346;28;20024;-60
2022/10/17 09:01:02;;;;;;;2.90;1.10;;;;;;;;;;5052154;28;20394;-61
2022/10/17 09:03:41;;;;;;;3.45;1.23;;;;;;;;;;5052330;28;20082;-60
2022/10/17 09:06:32;;;;;;;3.05;1.23;;;;;;;;;;5052243;28;20024;-60
2022/10/17 09:09:18;;;;;;;2.63;1.25;;;;;;;;;;5051967;28;20075;-60
2022/10/17 09:11:50;;;;;;;3.13;0.90;;;;;;;;;;5052224;28;20111;-60
2022/10/17 09:14:17;;;;;;;;;;;;;;;;;;5052605;28;20580;-60
2022/10/17 09:16:50;;;;;;;2.92;1.00;;;;;;;;;;5052013;28;19912;-60
2022/10/17 09:19:23;;;;;;;3.53;1.02;;;;;;;;;;5052060;28;20026;-60
2022/10/17 09:22:05;;;;;;;2.08;0.85;;;;;;;;;;5051671;28;20032;-60
2022/10/17 09:24:40;;;;;;;2.92;0.90;;;;;;;;;;5051968;28;20027;-60
2022/10/17 09:27:15;;;;;;;3.35;1.30;;;;;;;;;;5051837;28;20079;-60
2022/10/17 09:29:44;;;;;;;4.30;1.30;;;;;;;;;;5023795;28;20043;-60
2022/10/17 09:32:17;;;;;;;3.08;1.20;;;;;;;;;;5011823;28;20037;-61
2022/10/17 09:34:44;;;;;;;7.57;1.48;;;;;;;;;;5015217;28;20257;-63
2022/10/17 09:37:15;;;;;;;4.10;1.00;;;;;;;;;;5025303;28;20109;-62
2022/10/17 09:39:42;;;;;;;5.95;1.30;;;;;;;;;;5027535;28;20022;-62
2022/10/17 09:42:14;;;;;;;5.70;1.50;;;;;;;;;;5020610;28;20037;-63
2022/10/17 09:44:49;;;;;;;6.30;1.27;;;;;;;;;;5027457;28;20038;-61
2022/10/17 09:47:31;;;;;;;6.95;1.50;;;;;;;;;;5029959;28;20130;-62
2022/10/17 09:49:58;;;;;;;12.88;1.73;;;;;;;;;;5027710;28;20499;-62
2022/10/17 09:52:36;;;;;;;2.42;1.08;;;;;;;;;;5022980;28;20395;-62
2022/10/17 09:55:21;;;;;;;4.22;1.27;;;;;;;;;;5024682;28;20059;-63
2022/10/17 09:57:55;;;;;;;6.20;1.90;;;;;;;;;;5022795;28;20104;-62
2022/10/17 10:00:24;;;;;;;7.70;1.55;;;;;;;;;;5022249;28;20026;-62
2022/10/17 10:02:51;;;;;;;6.32;1.35;;;;;;;;;;5022814;28;20033;-63
2022/10/17 10:05:19;;;;;;;9.27;1.90;;;;;;;;;;5031872;28;20029;-63
2022/10/17 10:08:02;;;;;;;8.00;1.50;;;;;;;;;;5023485;28;20059;-62
2022/10/17 10:10:30;;;;;;;4.82;1.65;;;;;;;;;;5019693;28;20026;-63
2022/10/17 10:13:04;;;;;;;9.48;1.95;;;;;;;;;;5018877;28;20024;-63
2022/10/17 10:15:40;;;;;;;8.98;1.52;;;;;;;;;;5011698;28;20077;-63
2022/10/17 10:18:32;;;;;;;7.32;2.05;;;;;;;;;;5011673;28;20041;-63
2022/10/17 10:21:10;;;;;;;4.60;1.50;;;;;;;;;;5013220;28;20065;-63
2022/10/17 10:23:39;;;;;;;4.80;1.42;;;;;;;;;;5015583;28;20092;-63
2022/10/17 10:26:18;;;;;;;5.40;1.35;;;;;;;;;;5015433;28;20476;-63
2022/10/17 10:28:51;;;;;;;4.30;1.73;;;;;;;;;;5015387;28;20052;-63
2022/10/17 10:31:25;;;;;;;9.75;2.08;;;;;;;;;;5015369;28;20029;-63
2022/10/17 10:33:52;;;;;;;8.20;1.77;;;;;;;;;;5015447;28;20021;-63
2022/10/17 10:36:21;;;;;;;5.75;1.70;;;;;;;;;;5015281;28;20026;-63
2022/10/17 10:38:53;;;;;;;7.95;2.10;;;;;;;;;;5015243;28;20030;-63
2022/10/17 10:41:20;;;;;;;8.17;1.70;;;;;;;;;;5015313;28;20052;-63
2022/10/17 10:43:48;;;;;;;9.98;1.88;;;;;;;;;;5015270;28;20026;-63
2022/10/17 10:46:25;;;;;;;6.05;1.42;;;;;;;;;;5014855;28;20033;-63
2022/10/17 10:48:58;;;;;;;7.47;2.00;;;;;;;;;;5015075;28;20093;-63
2022/10/17 10:51:28;;;;;;;19.55;2.38;;;;;;;;;;5017737;28;21394;-58
2022/10/17 10:53:55;;;;;;;15.60;2.70;;;;;;;;;;5033165;28;20481;-58
2022/10/17 10:56:54;;;;;;;9.35;2.13;;;;;;;;;;5034578;28;20044;-57
2022/10/17 10:59:25;;;;;;;11.07;1.98;;;;;;;;;;4989883;28;20486;-58
2022/10/17 11:02:02;;;;;;;12.23;2.35;;;;;;;;;;5034219;28;20033;-59
2022/10/17 11:04:52;;;;;;;9.68;2.35;;;;;;;;;;5032535;28;20402;-56
2022/10/17 11:07:31;;;;;;;14.00;2.55;;;;;;;;;;4984925;28;20065;-59
2022/10/17 11:09:58;;;;;;;12.98;2.58;;;;;;;;;;5033347;28;20041;-58
2022/10/17 11:12:29;;;;;;;14.27;2.08;;;;;;;;;;5033973;28;20040;-58
2022/10/17 11:15:03;;;;;;;6.65;1.80;;;;;;;;;;5015611;28;20033;-58
2022/10/17 11:17:30;;;;;;;10.57;2.10;;;;;;;;;;5034089;28;20033;-58
2022/10/17 11:20:09;;;;;;;9.70;2.28;;;;;;;;;;5030139;28;20029;-59
2022/10/17 11:22:40;;;;;;;10.90;2.22;;;;;;;;;;5033722;28;20025;-59
2022/10/17 11:25:13;;;;;;;15.60;2.85;;;;;;;;;;5033200;28;20037;-60
2022/10/17 11:27:40;;;;;;;12.02;2.28;;;;;;;;;;5033937;28;20574;-60
2022/10/17 11:30:09;;;;;;;9.25;2.15;;;;;;;;;;5033219;28;20022;-61
2022/10/17 11:32:55;;;;;;;40.20;4.35;;;;;;;;;;5031866;28;20060;-56
2022/10/17 11:35:22;;;;;;;23.23;3.03;;;;;;;;;;5020618;28;20116;-53
2022/10/17 11:38:06;;;;;;;14.88;2.60;;;;;;;;;;5019364;28;20017;-56
2022/10/17 11:40:38;;;;;;;14.30;3.03;;;;;;;;;;5027250;28;20418;-57
2022/10/17 11:43:15;;;;;;;12.13;2.70;;;;;;;;;;5030039;28;20025;-60
2022/10/17 11:45:44;;;;;;;17.75;3.35;;;;;;;;;;5019957;28;20494;-58
2022/10/17 11:48:20;;;;;;;20.35;2.78;;;;;;;;;;5021861;28;20088;-57
2022/10/17 11:50:54;;;;;;;12.30;2.50;;;;;;;;;;5021194;28;20041;-58
2022/10/17 11:53:23;;;;;;;12.38;2.60;;;;;;;;;;5020949;28;20022;-57
2022/10/17 11:55:51;;;;;;;15.15;2.65;;;;;;;;;;5021908;28;20025;-58
2022/10/17 11:58:20;;;;;;;16.55;2.47;;;;;;;;;;5020247;28;20030;-59
2022/10/17 12:01:00;;;;;;;15.10;2.50;;;;;;;;;;5019166;28;20062;-57
2022/10/17 12:03:42;;;;;;;14.77;2.60;;;;;;;;;;5023163;28;20044;-56
2022/10/17 12:06:28;;;;;;;11.13;2.72;;;;;;;;;;5021399;28;20595;-57
2022/10/17 12:09:10;;;;;;;16.60;2.60;;;;;;;;;;5023102;28;20073;-59
2022/10/17 12:11:52;;;;;;;21.17;3.28;;;;;;;;;;5019955;28;20037;-60
2022/10/17 12:14:38;;;;;;;14.30;2.90;;;;;;;;;;5021694;28;20030;-59
2022/10/17 12:17:06;;;;;;;12.10;2.90;;;;;;;;;;5020764;28;20034;-60
2022/10/17 12:19:35;;;;;;;13.90;2.53;;;;;;;;;;5011196;28;20039;-59
2022/10/17 12:22:22;;;;;;;9.80;2.70;;;;;;;;;;5021726;28;20030;-59
2022/10/17 12:24:57;;;;;;;14.80;2.53;;;;;;;;;;5022269;28;20034;-60
2022/10/17 12:27:34;;;;;;;17.35;2.88;;;;;;;;;;5019847;28;20033;-58
2022/10/17 12:30:15;;;;;;;14.65;2.92;;;;;;;;;;5022084;28;20509;-59
2022/10/17 12:32:57;;;;;;;16.27;2.97;;;;;;;;;;5018607;28;20034;-58
2022/10/17 12:35:25;;;;;;;15.45;2.53;;;;;;;;;;5021401;28;20823;-59
2022/10/17 12:37:52;;;;;;;11.88;2.55;;;;;;;;;;5020866;28;20063;-60
2022/10/17 12:40:35;;;;;;;17.98;2.50;;;;;;;;;;5025329;28;20021;-59
2022/10/17 12:43:03;;;;;;;12.20;2.45;;;;;;;;;;5020943;28;20017;-56
2022/10/17 12:45:48;;;;;;;15.25;2.60;;;;;;;;;;5023714;28;20083;-57
2022/10/17 12:48:33;;;;;;;14.95;2.45;;;;;;;;;;5009401;28;20061;-57
2022/10/17 12:51:03;;;;;;;15.75;2.92;;;;;;;;;;5032419;28;20035;-55
2022/10/17 12:53:50;;;;;;;12.00;2.35;;;;;;;;;;5030183;28;20755;-57
2022/10/17 12:56:18;;;;;;;9.27;2.22;;;;;;;;;;5031422;28;20108;-56
2022/10/17 12:58:46;;;;;;;16.95;2.70;;;;;;;;;;5031698;28;20056;-55
2022/10/17 13:01:19;;;;;;;20.63;2.20;;;;;;;;;;5028645;28;20574;-58
2022/10/17 13:03:45;;;;;;;;;;;;;;;;;;5032731;28;20025;-59
2022/10/17 13:06:16;;;;;;;13.52;2.45;;;;;;;;;;5031481;28;20409;-55
2022/10/17 13:08:45;;;;;;;17.60;2.40;;;;;;;;;;5025672;28;20092;-58
2022/10/17 13:11:14;;;;;;;14.68;2.38;;;;;;;;;;5014936;28;20083;-57
2022/10/17 13:13:43;;;;;;;17.30;2.38;;;;;;;;;;5022584;28;20044;-58
2022/10/17 13:16:27;;;;;;;12.75;2.17;;;;;;;;;;5024423;28;20037;-58
2022/10/17 13:18:54;;;;;;;11.48;2.47;;;;;;;;;;5014715;28;20091;-54
2022/10/17 13:21:21;;;;;;;11.60;1.90;;;;;;;;;;5028831;28;20092;-54
2022/10/17 13:23:51;;;;;;;18.20;2.40;;;;;;;;;;5031194;28;20508;-58
2022/10/17 13:26:21;;;;;;;19.77;2.70;;;;;;;;;;5031602;28;20200;-58
2022/10/17 13:29:03;;;;;;;29.33;2.88;;;;;;;;;;5031985;28;20430;-59
2022/10/17 13:31:32;;;;;;;13.73;2.85;;;;;;;;;;5010672;28;20034;-58
2022/10/17 13:34:00;;;;;;;21.30;2.67;;;;;;;;;;5012228;28;20080;-57
2022/10/17 13:36:29;;;;;;;15.02;2.50;;;;;;;;;;5012036;28;20703;-57
2022/10/17 13:38:57;;;;;;;12.65;2.20;;;;;;;;;;5012045;28;20018;-55
2022/10/17 13:41:28;;;;;;;23.50;2.70;;;;;;;;;;5012067;28;20025;-60
2022/10/17 13:43:56;;;;;;;19.20;2.53;;;;;;;;;;5012233;28;20061;-58
2022/10/17 13:46:41;;;;;;;28.33;2.75;;;;;;;;;;5016924;28;20037;-58
2022/10/17 13:49:15;;;;;;;18.05;2.70;;;;;;;;;;5028353;28;20056;-56
2022/10/17 13:51:46;;;;;;;19.40;2.83;;;;;;;;;;5031340;28;20033;-54
2022/10/17 13:54:32;;;;;;;31.08;2.60;;;;;;;;;;5028068;28;20029;-54
2022/10/17 13:56:59;;;;;;;15.93;2.30;;;;;;;;;;5034224;28;20044;-54
2022/10/17 13:59:30;;;;;;;22.23;2.95;;;;;;;;;;5035026;28;20458;-55
2022/10/17 14:02:00;;;;;;;21.90;3.03;;;;;;;;;;5035202;28;20031;-56
2022/10/17 14:04:28;;;;;;;23.67;2.85;;;;;;;;;;5032350;28;20041;-53
2022/10/17 14:06:55;;;;;;;30.35;3.05;;;;;;;;;;5035489;28;20506;-54
2022/10/17 14:09:22;;;;;;;18.58;2.72;;;;;;;;;;5034925;28;20069;-54
2022/10/17 14:12:02;;;;;;;22.20;2.60;;;;;;;;;;5035050;28;20041;-53
2022/10/17 14:14:30;;;;;;;24.10;2.88;;;;;;;;;;5034588;28;20033;-56
2022/10/17 14:16:57;;;;;;;17.40;2.50;;;;;;;;;;5016892;28;20095;-51
2022/10/17 14:19:26;;;;;;;19.52;2.53;;;;;;;;;;5034741;28;20026;-53
2022/10/17 14:21:55;;;;;;;21.33;2.63;;;;;;;;;;5033520;28;20033;-52
2022/10/17 14:24:22;;;;;;;25.60;3.08;;;;;;;;;;5034495;28;20037;-57
2022/10/17 14:26:51;;;;;;;21.05;2.83;;;;;;;;;;5034696;28;20037;-55
2022/10/17 14:29:28;;;;;;;23.15;2.78;;;;;;;;;;5031835;28;20053;-54
2022/10/17 14:32:03;;;;;;;34.55;3.40;;;;;;;;;;5034464;28;20033;-55
2022/10/17 14:34:36;;;;;;;22.58;3.38;;;;;;;;;;5034328;28;20037;-54
2022/10/17 14:37:09;;;;;;;26.38;3.38;;;;;;;;;;5017943;28;20030;-51
2022/10/17 14:39:36;;;;;;;25.08;2.83;;;;;;;;;;5015266;28;20538;-54
2022/10/17 14:42:03;;;;;;;20.17;2.80;;;;;;;;;;5016614;28;20034;-55
2022/10/17 14:44:31;;;;;;;21.05;2.97;;;;;;;;;;5032682;28;20022;-52
2022/10/17 14:47:00;;;;;;;26.02;3.83;;;;;;;;;;5031691;28;20046;-55
2022/10/17 14:49:33;;;;;;;26.80;3.00;;;;;;;;;;5034271;28;20029;-54
2022/10/17 14:52:29;;;;;;;27.48;3.70;;;;;;;;;;5032046;28;20046;-54
2022/10/17 14:54:57;;;;;;;26.38;2.97;;;;;;;;;;5021181;28;20075;-55
2022/10/17 14:57:24;;;;;;;27.98;3.47;;;;;;;;;;5034161;28;20519;-56